sensor_id;sensor_type;location;lat;lon;timestamp;temperature;humidity
19567;DHT22;9930;49.240;8.548;2023-11-21T00:00:08;12.90;82.80
19567;DHT22;9930;49.240;8.548;2023-11-21T00:02:38;12.90;82.90
19567;DHT22;9930;49.240;8.548;2023-11-21T00:05:09;12.90;83.00
19567;DHT22;9930;49.240;8.548;2023-11-21T00:07:38;12.90;82.90
19567;DHT22;9930;49.240;8.548;2023-11-21T00:10:08;12.90;82.90
19567;DHT22;9930;49.240;8.548;2023-11-21T00:12:39;12.90;82.90
19567;DHT22;9930;49.240;8.548;2023-11-21T00:15:08;12.90;83.00
19567;DHT22;9930;49.240;8.548;2023-11-21T00:17:40;12.90;82.90
19567;DHT22;9930;49.240;8.548;2023-11-21T00:20:08;12.90;83.00
19567;DHT22;9930;49.240;8.548;2023-11-21T00:22:35;13.00;83.00
19567;DHT22;9930;49.240;8.548;2023-11-21T00:25:01;12.90;83.00
19567;DHT22;9930;49.240;8.548;2023-11-21T00:27:29;13.00;83.10
19567;DHT22;9930;49.240;8.548;2023-11-21T00:29:55;12.90;82.90
19567;DHT22;9930;49.240;8.548;2023-11-21T00:32:21;12.90;83.00
19567;DHT22;9930;49.240;8.548;2023-11-21T00:34:46;12.90;83.00
19567;DHT22;9930;49.240;8.548;2023-11-21T00:37:15;12.90;83.00
19567;DHT22;9930;49.240;8.548;2023-11-21T00:39:42;12.90;83.10
19567;DHT22;9930;49.240;8.548;2023-11-21T00:42:13;12.90;83.10
19567;DHT22;9930;49.240;8.548;2023-11-21T00:44:38;12.90;83.10
19567;DHT22;9930;49.240;8.548;2023-11-21T00:47:05;12.90;83.10
19567;DHT22;9930;49.240;8.548;2023-11-21T00:49:30;12.90;83.20
19567;DHT22;9930;49.240;8.548;2023-11-21T00:51:56;12.90;83.20
19567;DHT22;9930;49.240;8.548;2023-11-21T00:54:23;12.90;83.10
19567;DHT22;9930;49.240;8.548;2023-11-21T00:56:51;12.90;83.20
19567;DHT22;9930;49.240;8.548;2023-11-21T00:59:17;12.90;83.30
19567;DHT22;9930;49.240;8.548;2023-11-21T01:01:43;12.90;83.40
19567;DHT22;9930;49.240;8.548;2023-11-21T01:04:10;13.00;83.40
19567;DHT22;9930;49.240;8.548;2023-11-21T01:06:39;12.90;83.30
19567;DHT22;9930;49.240;8.548;2023-11-21T01:09:05;13.00;83.30
19567;DHT22;9930;49.240;8.548;2023-11-21T01:11:34;13.00;83.30
19567;DHT22;9930;49.240;8.548;2023-11-21T01:14:04;13.00;83.30
19567;DHT22;9930;49.240;8.548;2023-11-21T01:16:32;13.00;83.30
19567;DHT22;9930;49.240;8.548;2023-11-21T01:18:59;13.00;83.20
19567;DHT22;9930;49.240;8.548;2023-11-21T01:21:25;12.90;83.20
19567;DHT22;9930;49.240;8.548;2023-11-21T01:23:51;12.90;83.10
19567;DHT22;9930;49.240;8.548;2023-11-21T01:26:16;12.90;83.10
19567;DHT22;9930;49.240;8.548;2023-11-21T01:28:45;12.90;83.20
19567;DHT22;9930;49.240;8.548;2023-11-21T01:31:10;12.90;83.20
19567;DHT22;9930;49.240;8.548;2023-11-21T01:33:38;12.90;83.30
19567;DHT22;9930;49.240;8.548;2023-11-21T01:36:07;12.90;83.30
19567;DHT22;9930;49.240;8.548;2023-11-21T01:38:38;12.90;83.30
19567;DHT22;9930;49.240;8.548;2023-11-21T01:41:05;12.90;83.40
19567;DHT22;9930;49.240;8.548;2023-11-21T01:43:31;12.90;83.40
19567;DHT22;9930;49.240;8.548;2023-11-21T01:45:58;12.90;83.30
19567;DHT22;9930;49.240;8.548;2023-11-21T01:48:27;12.80;83.40
19567;DHT22;9930;49.240;8.548;2023-11-21T01:50:53;12.80;83.40
19567;DHT22;9930;49.240;8.548;2023-11-21T01:53:19;12.80;83.50
19567;DHT22;9930;49.240;8.548;2023-11-21T01:55:46;12.80;83.50
19567;DHT22;9930;49.240;8.548;2023-11-21T01:58:12;12.80;83.50
19567;DHT22;9930;49.240;8.548;2023-11-21T02:00:41;12.90;83.60
19567;DHT22;9930;49.240;8.548;2023-11-21T02:03:09;12.90;83.60
19567;DHT22;9930;49.240;8.548;2023-11-21T02:05:38;12.90;83.50
19567;DHT22;9930;49.240;8.548;2023-11-21T02:08:04;12.90;83.50
19567;DHT22;9930;49.240;8.548;2023-11-21T02:10:32;12.90;83.50
19567;DHT22;9930;49.240;8.548;2023-11-21T02:13:01;12.90;83.50
19567;DHT22;9930;49.240;8.548;2023-11-21T02:15:30;12.90;83.60
19567;DHT22;9930;49.240;8.548;2023-11-21T02:18:04;12.90;83.60
19567;DHT22;9930;49.240;8.548;2023-11-21T02:20:32;12.90;83.60
19567;DHT22;9930;49.240;8.548;2023-11-21T02:23:02;12.90;83.60
19567;DHT22;9930;49.240;8.548;2023-11-21T02:25:30;12.90;83.60
19567;DHT22;9930;49.240;8.548;2023-11-21T02:28:01;12.90;83.50
19567;DHT22;9930;49.240;8.548;2023-11-21T02:30:28;12.90;83.70
19567;DHT22;9930;49.240;8.548;2023-11-21T02:32:57;12.90;83.70
19567;DHT22;9930;49.240;8.548;2023-11-21T02:35:24;12.90;83.70
19567;DHT22;9930;49.240;8.548;2023-11-21T02:37:53;12.90;83.80
19567;DHT22;9930;49.240;8.548;2023-11-21T02:40:20;12.90;83.80
19567;DHT22;9930;49.240;8.548;2023-11-21T02:42:50;12.90;83.80
19567;DHT22;9930;49.240;8.548;2023-11-21T02:45:17;12.90;83.80
19567;DHT22;9930;49.240;8.548;2023-11-21T02:47:47;12.90;83.80
19567;DHT22;9930;49.240;8.548;2023-11-21T02:50:16;12.90;83.90
19567;DHT22;9930;49.240;8.548;2023-11-21T02:52:45;12.90;84.00
19567;DHT22;9930;49.240;8.548;2023-11-21T02:55:11;12.90;84.00
19567;DHT22;9930;49.240;8.548;2023-11-21T02:57:38;12.80;84.00
19567;DHT22;9930;49.240;8.548;2023-11-21T03:00:11;12.80;83.90
19567;DHT22;9930;49.240;8.548;2023-11-21T03:02:42;12.80;84.10
19567;DHT22;9930;49.240;8.548;2023-11-21T03:05:11;12.80;84.20
19567;DHT22;9930;49.240;8.548;2023-11-21T03:07:38;12.80;84.20
19567;DHT22;9930;49.240;8.548;2023-11-21T03:10:06;12.80;84.30
19567;DHT22;9930;49.240;8.548;2023-11-21T03:12:38;12.80;84.30
19567;DHT22;9930;49.240;8.548;2023-11-21T03:15:10;12.80;84.40
19567;DHT22;9930;49.240;8.548;2023-11-21T03:17:40;12.80;84.40
19567;DHT22;9930;49.240;8.548;2023-11-21T03:20:07;12.80;84.60
19567;DHT22;9930;49.240;8.548;2023-11-21T03:22:40;12.80;84.60
19567;DHT22;9930;49.240;8.548;2023-11-21T03:25:12;12.80;84.70
19567;DHT22;9930;49.240;8.548;2023-11-21T03:27:41;12.80;84.80
19567;DHT22;9930;49.240;8.548;2023-11-21T03:30:08;12.80;84.80
19567;DHT22;9930;49.240;8.548;2023-11-21T03:32:37;12.80;84.80
19567;DHT22;9930;49.240;8.548;2023-11-21T03:35:06;12.80;84.90
19567;DHT22;9930;49.240;8.548;2023-11-21T03:37:33;12.80;84.90
19567;DHT22;9930;49.240;8.548;2023-11-21T03:39:58;12.80;85.00
19567;DHT22;9930;49.240;8.548;2023-11-21T03:42:31;12.80;85.10
19567;DHT22;9930;49.240;8.548;2023-11-21T03:45:00;12.80;85.10
19567;DHT22;9930;49.240;8.548;2023-11-21T03:47:27;12.80;85.20
19567;DHT22;9930;49.240;8.548;2023-11-21T03:49:53;12.70;85.10
19567;DHT22;9930;49.240;8.548;2023-11-21T03:52:19;12.80;85.30
19567;DHT22;9930;49.240;8.548;2023-11-21T03:54:47;12.80;85.30
19567;DHT22;9930;49.240;8.548;2023-11-21T03:57:13;12.80;85.20
19567;DHT22;9930;49.240;8.548;2023-11-21T03:59:44;12.80;85.30
19567;DHT22;9930;49.240;8.548;2023-11-21T04:02:10;12.70;85.40
19567;DHT22;9930;49.240;8.548;2023-11-21T04:04:38;12.70;85.40
19567;DHT22;9930;49.240;8.548;2023-11-21T04:07:05;12.70;85.30
19567;DHT22;9930;49.240;8.548;2023-11-21T04:09:30;12.70;85.40
19567;DHT22;9930;49.240;8.548;2023-11-21T04:11:56;12.70;85.50
19567;DHT22;9930;49.240;8.548;2023-11-21T04:14:22;12.70;85.50
19567;DHT22;9930;49.240;8.548;2023-11-21T04:16:50;12.70;85.60
19567;DHT22;9930;49.240;8.548;2023-11-21T04:19:16;12.70;85.60
19567;DHT22;9930;49.240;8.548;2023-11-21T04:21:42;12.70;85.60
19567;DHT22;9930;49.240;8.548;2023-11-21T04:24:08;12.70;85.60
19567;DHT22;9930;49.240;8.548;2023-11-21T04:26:37;12.70;85.50
19567;DHT22;9930;49.240;8.548;2023-11-21T04:29:03;12.70;85.50
19567;DHT22;9930;49.240;8.548;2023-11-21T04:31:30;12.70;85.70
19567;DHT22;9930;49.240;8.548;2023-11-21T04:33:56;12.70;85.70
19567;DHT22;9930;49.240;8.548;2023-11-21T04:36:21;12.70;85.80
19567;DHT22;9930;49.240;8.548;2023-11-21T04:38:49;12.80;85.80
19567;DHT22;9930;49.240;8.548;2023-11-21T04:41:17;12.80;85.80
19567;DHT22;9930;49.240;8.548;2023-11-21T04:43:43;12.70;85.80
19567;DHT22;9930;49.240;8.548;2023-11-21T04:46:15;12.70;85.80
19567;DHT22;9930;49.240;8.548;2023-11-21T04:48:41;12.70;86.00
19567;DHT22;9930;49.240;8.548;2023-11-21T04:51:18;12.70;85.90
19567;DHT22;9930;49.240;8.548;2023-11-21T04:53:43;12.70;86.00
19567;DHT22;9930;49.240;8.548;2023-11-21T04:56:12;12.80;86.00
19567;DHT22;9930;49.240;8.548;2023-11-21T04:58:39;12.70;86.00
19567;DHT22;9930;49.240;8.548;2023-11-21T05:01:06;12.80;85.90
19567;DHT22;9930;49.240;8.548;2023-11-21T05:03:36;12.80;85.90
19567;DHT22;9930;49.240;8.548;2023-11-21T05:06:06;12.70;85.90
19567;DHT22;9930;49.240;8.548;2023-11-21T05:08:35;12.70;85.90
19567;DHT22;9930;49.240;8.548;2023-11-21T05:11:03;12.70;85.90
19567;DHT22;9930;49.240;8.548;2023-11-21T05:13:31;12.70;85.90
19567;DHT22;9930;49.240;8.548;2023-11-21T05:16:03;12.70;85.80
19567;DHT22;9930;49.240;8.548;2023-11-21T05:18:33;12.70;85.70
19567;DHT22;9930;49.240;8.548;2023-11-21T05:20:59;12.70;85.80
19567;DHT22;9930;49.240;8.548;2023-11-21T05:23:26;12.70;85.90
19567;DHT22;9930;49.240;8.548;2023-11-21T05:25:52;12.70;85.90
19567;DHT22;9930;49.240;8.548;2023-11-21T05:28:18;12.70;85.90
19567;DHT22;9930;49.240;8.548;2023-11-21T05:30:43;12.70;86.20
19567;DHT22;9930;49.240;8.548;2023-11-21T05:33:10;12.60;86.10
19567;DHT22;9930;49.240;8.548;2023-11-21T05:35:35;12.70;86.20
19567;DHT22;9930;49.240;8.548;2023-11-21T05:38:02;12.70;86.20
19567;DHT22;9930;49.240;8.548;2023-11-21T05:40:28;12.60;86.10
19567;DHT22;9930;49.240;8.548;2023-11-21T05:42:55;12.60;86.20
19567;DHT22;9930;49.240;8.548;2023-11-21T05:45:23;12.60;86.20
19567;DHT22;9930;49.240;8.548;2023-11-21T05:47:49;12.60;86.30
19567;DHT22;9930;49.240;8.548;2023-11-21T05:50:16;12.60;86.40
19567;DHT22;9930;49.240;8.548;2023-11-21T05:52:45;12.60;86.40
19567;DHT22;9930;49.240;8.548;2023-11-21T05:55:12;12.70;86.50
19567;DHT22;9930;49.240;8.548;2023-11-21T05:57:40;12.60;86.40
19567;DHT22;9930;49.240;8.548;2023-11-21T06:00:14;12.60;86.50
19567;DHT22;9930;49.240;8.548;2023-11-21T06:02:54;12.60;86.60
19567;DHT22;9930;49.240;8.548;2023-11-21T06:05:23;12.70;86.50
19567;DHT22;9930;49.240;8.548;2023-11-21T06:07:55;12.60;86.40
19567;DHT22;9930;49.240;8.548;2023-11-21T06:10:26;12.60;86.40
19567;DHT22;9930;49.240;8.548;2023-11-21T06:12:57;12.60;86.40
19567;DHT22;9930;49.240;8.548;2023-11-21T06:15:26;12.60;86.40
19567;DHT22;9930;49.240;8.548;2023-11-21T06:17:54;12.60;86.50
19567;DHT22;9930;49.240;8.548;2023-11-21T06:20:20;12.60;86.50
19567;DHT22;9930;49.240;8.548;2023-11-21T06:22:49;12.60;86.50
19567;DHT22;9930;49.240;8.548;2023-11-21T06:25:15;12.60;86.50
19567;DHT22;9930;49.240;8.548;2023-11-21T06:27:45;12.60;86.60
19567;DHT22;9930;49.240;8.548;2023-11-21T06:30:14;12.60;86.60
19567;DHT22;9930;49.240;8.548;2023-11-21T06:32:42;12.60;86.70
19567;DHT22;9930;49.240;8.548;2023-11-21T06:35:18;12.60;86.80
19567;DHT22;9930;49.240;8.548;2023-11-21T06:37:44;12.60;86.80
19567;DHT22;9930;49.240;8.548;2023-11-21T06:40:13;12.60;86.90
19567;DHT22;9930;49.240;8.548;2023-11-21T06:42:44;12.60;86.90
19567;DHT22;9930;49.240;8.548;2023-11-21T06:45:12;12.60;87.00
19567;DHT22;9930;49.240;8.548;2023-11-21T06:47:41;12.60;87.00
19567;DHT22;9930;49.240;8.548;2023-11-21T06:50:08;12.60;87.10
19567;DHT22;9930;49.240;8.548;2023-11-21T06:52:34;12.70;87.10
19567;DHT22;9930;49.240;8.548;2023-11-21T06:55:04;12.70;87.10
19567;DHT22;9930;49.240;8.548;2023-11-21T06:57:31;12.70;87.00
19567;DHT22;9930;49.240;8.548;2023-11-21T07:00:03;12.70;87.10
19567;DHT22;9930;49.240;8.548;2023-11-21T07:02:30;12.70;87.10
19567;DHT22;9930;49.240;8.548;2023-11-21T07:05:01;12.70;87.20
19567;DHT22;9930;49.240;8.548;2023-11-21T07:07:27;12.70;87.20
19567;DHT22;9930;49.240;8.548;2023-11-21T07:09:53;12.70;87.20
19567;DHT22;9930;49.240;8.548;2023-11-21T07:12:19;12.70;87.30
19567;DHT22;9930;49.240;8.548;2023-11-21T07:14:47;12.70;87.30
19567;DHT22;9930;49.240;8.548;2023-11-21T07:17:17;12.70;87.30
19567;DHT22;9930;49.240;8.548;2023-11-21T07:19:43;12.70;87.30
19567;DHT22;9930;49.240;8.548;2023-11-21T07:22:13;12.70;87.30
19567;DHT22;9930;49.240;8.548;2023-11-21T07:24:43;12.70;87.30
19567;DHT22;9930;49.240;8.548;2023-11-21T07:27:08;12.80;87.40
19567;DHT22;9930;49.240;8.548;2023-11-21T07:29:40;12.70;87.90
19567;DHT22;9930;49.240;8.548;2023-11-21T07:32:06;12.70;87.30
19567;DHT22;9930;49.240;8.548;2023-11-21T07:34:34;12.80;87.40
19567;DHT22;9930;49.240;8.548;2023-11-21T07:37:03;12.80;87.50
19567;DHT22;9930;49.240;8.548;2023-11-21T07:39:29;12.80;87.50
19567;DHT22;9930;49.240;8.548;2023-11-21T07:41:55;12.80;87.60
19567;DHT22;9930;49.240;8.548;2023-11-21T07:44:25;12.90;87.50
19567;DHT22;9930;49.240;8.548;2023-11-21T07:46:51;12.90;87.60
19567;DHT22;9930;49.240;8.548;2023-11-21T07:49:17;12.90;87.60
19567;DHT22;9930;49.240;8.548;2023-11-21T07:51:45;12.90;87.60
19567;DHT22;9930;49.240;8.548;2023-11-21T07:54:16;12.90;87.40
19567;DHT22;9930;49.240;8.548;2023-11-21T07:56:44;12.90;88.20
19567;DHT22;9930;49.240;8.548;2023-11-21T07:59:10;12.90;87.40
19567;DHT22;9930;49.240;8.548;2023-11-21T08:01:40;13.00;87.40
19567;DHT22;9930;49.240;8.548;2023-11-21T08:04:08;13.00;87.40
19567;DHT22;9930;49.240;8.548;2023-11-21T08:06:34;13.00;87.60
19567;DHT22;9930;49.240;8.548;2023-11-21T08:09:03;13.00;87.70
19567;DHT22;9930;49.240;8.548;2023-11-21T08:11:28;13.00;87.60
19567;DHT22;9930;49.240;8.548;2023-11-21T08:14:00;13.10;87.60
19567;DHT22;9930;49.240;8.548;2023-11-21T08:16:26;13.10;87.60
19567;DHT22;9930;49.240;8.548;2023-11-21T08:18:55;13.10;87.50
19567;DHT22;9930;49.240;8.548;2023-11-21T08:21:23;13.10;87.50
19567;DHT22;9930;49.240;8.548;2023-11-21T08:23:52;13.10;88.20
19567;DHT22;9930;49.240;8.548;2023-11-21T08:26:20;13.20;87.40
19567;DHT22;9930;49.240;8.548;2023-11-21T08:28:46;13.20;87.40
19567;DHT22;9930;49.240;8.548;2023-11-21T08:31:14;13.10;87.30
19567;DHT22;9930;49.240;8.548;2023-11-21T08:33:45;13.20;87.40
19567;DHT22;9930;49.240;8.548;2023-11-21T08:36:13;13.20;87.90
19567;DHT22;9930;49.240;8.548;2023-11-21T08:38:39;13.20;87.00
19567;DHT22;9930;49.240;8.548;2023-11-21T08:41:06;13.20;86.90
19567;DHT22;9930;49.240;8.548;2023-11-21T08:43:37;13.20;86.80
19567;DHT22;9930;49.240;8.548;2023-11-21T08:46:07;13.20;86.70
19567;DHT22;9930;49.240;8.548;2023-11-21T08:48:36;13.20;86.70
19567;DHT22;9930;49.240;8.548;2023-11-21T08:51:04;13.10;86.80
19567;DHT22;9930;49.240;8.548;2023-11-21T08:53:30;13.10;86.80
19567;DHT22;9930;49.240;8.548;2023-11-21T08:55:58;13.10;86.90
19567;DHT22;9930;49.240;8.548;2023-11-21T08:58:24;13.10;87.00
19567;DHT22;9930;49.240;8.548;2023-11-21T09:00:49;13.10;86.80
19567;DHT22;9930;49.240;8.548;2023-11-21T09:03:15;13.10;86.90
19567;DHT22;9930;49.240;8.548;2023-11-21T09:05:43;13.00;86.90
19567;DHT22;9930;49.240;8.548;2023-11-21T09:08:10;13.10;87.20
19567;DHT22;9930;49.240;8.548;2023-11-21T09:10:35;13.10;87.30
19567;DHT22;9930;49.240;8.548;2023-11-21T09:13:02;13.10;87.50
19567;DHT22;9930;49.240;8.548;2023-11-21T09:15:28;13.10;87.50
19567;DHT22;9930;49.240;8.548;2023-11-21T09:17:54;13.10;87.60
19567;DHT22;9930;49.240;8.548;2023-11-21T09:20:22;13.10;87.60
19567;DHT22;9930;49.240;8.548;2023-11-21T09:22:50;13.20;87.80
19567;DHT22;9930;49.240;8.548;2023-11-21T09:25:15;13.20;87.60
19567;DHT22;9930;49.240;8.548;2023-11-21T09:27:45;13.20;87.70
19567;DHT22;9930;49.240;8.548;2023-11-21T09:30:11;13.20;87.70
19567;DHT22;9930;49.240;8.548;2023-11-21T09:32:39;13.30;87.70
19567;DHT22;9930;49.240;8.548;2023-11-21T09:35:06;13.30;87.50
19567;DHT22;9930;49.240;8.548;2023-11-21T09:37:37;13.30;87.50
19567;DHT22;9930;49.240;8.548;2023-11-21T09:40:09;13.30;87.50
19567;DHT22;9930;49.240;8.548;2023-11-21T09:42:47;13.40;87.40
19567;DHT22;9930;49.240;8.548;2023-11-21T09:45:26;13.40;87.40
19567;DHT22;9930;49.240;8.548;2023-11-21T09:48:00;13.40;87.40
19567;DHT22;9930;49.240;8.548;2023-11-21T09:50:34;13.40;87.40
19567;DHT22;9930;49.240;8.548;2023-11-21T09:53:13;13.40;87.40
19567;DHT22;9930;49.240;8.548;2023-11-21T09:55:44;13.40;87.50
19567;DHT22;9930;49.240;8.548;2023-11-21T09:58:13;13.50;87.50
19567;DHT22;9930;49.240;8.548;2023-11-21T10:00:41;13.50;87.50
19567;DHT22;9930;49.240;8.548;2023-11-21T10:03:11;13.50;87.50
19567;DHT22;9930;49.240;8.548;2023-11-21T10:05:44;13.60;87.50
19567;DHT22;9930;49.240;8.548;2023-11-21T10:08:15;13.60;87.40
19567;DHT22;9930;49.240;8.548;2023-11-21T10:10:45;13.60;87.30
19567;DHT22;9930;49.240;8.548;2023-11-21T10:13:14;13.60;87.20
19567;DHT22;9930;49.240;8.548;2023-11-21T10:15:43;13.60;87.20
19567;DHT22;9930;49.240;8.548;2023-11-21T10:18:14;13.70;87.20
19567;DHT22;9930;49.240;8.548;2023-11-21T10:20:45;13.60;87.00
19567;DHT22;9930;49.240;8.548;2023-11-21T10:23:18;13.60;86.80
19567;DHT22;9930;49.240;8.548;2023-11-21T10:25:53;13.60;86.80
19567;DHT22;9930;49.240;8.548;2023-11-21T10:28:20;13.60;86.80
19567;DHT22;9930;49.240;8.548;2023-11-21T10:30:46;13.60;86.80
19567;DHT22;9930;49.240;8.548;2023-11-21T10:33:12;13.60;86.80
19567;DHT22;9930;49.240;8.548;2023-11-21T10:35:48;13.60;86.60
19567;DHT22;9930;49.240;8.548;2023-11-21T10:38:20;13.60;86.60
19567;DHT22;9930;49.240;8.548;2023-11-21T10:40:49;13.60;86.40
19567;DHT22;9930;49.240;8.548;2023-11-21T10:43:15;13.60;86.30
19567;DHT22;9930;49.240;8.548;2023-11-21T10:45:41;13.50;86.20
19567;DHT22;9930;49.240;8.548;2023-11-21T10:48:09;13.50;86.40
19567;DHT22;9930;49.240;8.548;2023-11-21T10:50:40;13.50;86.60
19567;DHT22;9930;49.240;8.548;2023-11-21T10:53:08;13.50;86.70
19567;DHT22;9930;49.240;8.548;2023-11-21T10:55:34;13.60;86.70
19567;DHT22;9930;49.240;8.548;2023-11-21T10:58:03;13.60;86.80
19567;DHT22;9930;49.240;8.548;2023-11-21T11:00:32;13.50;86.60
19567;DHT22;9930;49.240;8.548;2023-11-21T11:02:59;13.60;86.70
19567;DHT22;9930;49.240;8.548;2023-11-21T11:05:27;13.60;86.60
19567;DHT22;9930;49.240;8.548;2023-11-21T11:08:12;13.60;86.50
19567;DHT22;9930;49.240;8.548;2023-11-21T11:10:45;13.60;86.50
19567;DHT22;9930;49.240;8.548;2023-11-21T11:13:13;13.60;86.50
19567;DHT22;9930;49.240;8.548;2023-11-21T11:15:40;13.60;86.40
19567;DHT22;9930;49.240;8.548;2023-11-21T11:18:12;13.60;86.30
19567;DHT22;9930;49.240;8.548;2023-11-21T11:20:40;13.60;86.40
19567;DHT22;9930;49.240;8.548;2023-11-21T11:23:25;13.60;86.60
19567;DHT22;9930;49.240;8.548;2023-11-21T11:29:10;13.60;86.80
19567;DHT22;9930;49.240;8.548;2023-11-21T11:34:34;13.70;86.90
19567;DHT22;9930;49.240;8.548;2023-11-21T11:37:06;13.70;86.80
19567;DHT22;9930;49.240;8.548;2023-11-21T11:39:38;13.80;86.60
19567;DHT22;9930;49.240;8.548;2023-11-21T11:42:17;13.70;86.60
19567;DHT22;9930;49.240;8.548;2023-11-21T11:47:22;13.70;86.70
19567;DHT22;9930;49.240;8.548;2023-11-21T11:52:51;13.70;87.00
19567;DHT22;9930;49.240;8.548;2023-11-21T11:55:19;13.80;87.00
19567;DHT22;9930;49.240;8.548;2023-11-21T11:57:51;13.80;86.80
19567;DHT22;9930;49.240;8.548;2023-11-21T12:03:00;13.80;86.80
19567;DHT22;9930;49.240;8.548;2023-11-21T12:05:30;13.80;86.60
19567;DHT22;9930;49.240;8.548;2023-11-21T12:08:11;13.80;86.60
19567;DHT22;9930;49.240;8.548;2023-11-21T12:10:43;13.80;86.80
19567;DHT22;9930;49.240;8.548;2023-11-21T12:13:10;13.80;87.00
19567;DHT22;9930;49.240;8.548;2023-11-21T12:15:38;13.80;87.00
19567;DHT22;9930;49.240;8.548;2023-11-21T12:18:06;13.90;87.20
19567;DHT22;9930;49.240;8.548;2023-11-21T12:20:36;13.90;87.60
19567;DHT22;9930;49.240;8.548;2023-11-21T12:23:05;13.90;87.50
19567;DHT22;9930;49.240;8.548;2023-11-21T12:25:31;14.00;87.40
19567;DHT22;9930;49.240;8.548;2023-11-21T12:27:59;14.00;87.20
19567;DHT22;9930;49.240;8.548;2023-11-21T12:30:28;14.10;86.90
19567;DHT22;9930;49.240;8.548;2023-11-21T12:33:02;14.10;86.40
19567;DHT22;9930;49.240;8.548;2023-11-21T12:35:33;14.10;86.10
19567;DHT22;9930;49.240;8.548;2023-11-21T12:38:00;14.10;86.10
19567;DHT22;9930;49.240;8.548;2023-11-21T12:40:30;14.10;86.00
19567;DHT22;9930;49.240;8.548;2023-11-21T12:42:58;14.10;85.70
19567;DHT22;9930;49.240;8.548;2023-11-21T12:45:27;14.10;85.30
19567;DHT22;9930;49.240;8.548;2023-11-21T12:50:31;14.00;85.00
19567;DHT22;9930;49.240;8.548;2023-11-21T12:53:06;14.00;85.10
19567;DHT22;9930;49.240;8.548;2023-11-21T12:55:36;14.00;85.20
19567;DHT22;9930;49.240;8.548;2023-11-21T12:58:08;13.90;85.20
19567;DHT22;9930;49.240;8.548;2023-11-21T13:00:46;13.90;85.20
19567;DHT22;9930;49.240;8.548;2023-11-21T13:03:14;13.90;85.30
19567;DHT22;9930;49.240;8.548;2023-11-21T13:05:51;13.90;85.50
19567;DHT22;9930;49.240;8.548;2023-11-21T13:08:24;13.90;85.60
19567;DHT22;9930;49.240;8.548;2023-11-21T13:10:55;13.90;85.70
19567;DHT22;9930;49.240;8.548;2023-11-21T13:13:23;13.90;85.80
19567;DHT22;9930;49.240;8.548;2023-11-21T13:15:55;13.90;86.00
19567;DHT22;9930;49.240;8.548;2023-11-21T13:18:25;14.00;86.10
19567;DHT22;9930;49.240;8.548;2023-11-21T13:21:12;14.00;86.10
19567;DHT22;9930;49.240;8.548;2023-11-21T13:23:42;14.00;85.60
19567;DHT22;9930;49.240;8.548;2023-11-21T13:26:11;14.10;85.70
19567;DHT22;9930;49.240;8.548;2023-11-21T13:28:38;14.10;85.70
19567;DHT22;9930;49.240;8.548;2023-11-21T13:31:07;14.20;85.50
19567;DHT22;9930;49.240;8.548;2023-11-21T13:33:56;14.20;85.30
19567;DHT22;9930;49.240;8.548;2023-11-21T13:36:25;14.20;85.20
19567;DHT22;9930;49.240;8.548;2023-11-21T13:38:51;14.20;85.10
19567;DHT22;9930;49.240;8.548;2023-11-21T13:41:22;14.30;85.00
19567;DHT22;9930;49.240;8.548;2023-11-21T13:43:58;14.20;84.80
19567;DHT22;9930;49.240;8.548;2023-11-21T13:46:41;14.20;84.70
19567;DHT22;9930;49.240;8.548;2023-11-21T13:49:08;14.20;84.90
19567;DHT22;9930;49.240;8.548;2023-11-21T13:51:36;14.30;85.70
19567;DHT22;9930;49.240;8.548;2023-11-21T13:54:10;14.30;85.50
19567;DHT22;9930;49.240;8.548;2023-11-21T13:56:40;14.30;84.90
19567;DHT22;9930;49.240;8.548;2023-11-21T13:59:24;14.30;84.80
19567;DHT22;9930;49.240;8.548;2023-11-21T14:02:13;14.30;84.60
19567;DHT22;9930;49.240;8.548;2023-11-21T14:04:44;14.30;84.10
19567;DHT22;9930;49.240;8.548;2023-11-21T14:07:26;14.30;84.10
19567;DHT22;9930;49.240;8.548;2023-11-21T14:10:03;14.30;83.70
19567;DHT22;9930;49.240;8.548;2023-11-21T14:12:33;14.30;83.40
19567;DHT22;9930;49.240;8.548;2023-11-21T14:15:01;14.20;83.30
19567;DHT22;9930;49.240;8.548;2023-11-21T14:17:30;14.20;84.00
19567;DHT22;9930;49.240;8.548;2023-11-21T14:19:56;14.10;83.40
19567;DHT22;9930;49.240;8.548;2023-11-21T14:22:22;14.10;83.50
19567;DHT22;9930;49.240;8.548;2023-11-21T14:24:47;14.10;83.50
19567;DHT22;9930;49.240;8.548;2023-11-21T14:27:17;14.10;83.40
19567;DHT22;9930;49.240;8.548;2023-11-21T14:29:45;14.00;83.40
19567;DHT22;9930;49.240;8.548;2023-11-21T14:32:14;14.00;83.40
19567;DHT22;9930;49.240;8.548;2023-11-21T14:34:42;14.00;83.30
19567;DHT22;9930;49.240;8.548;2023-11-21T14:37:12;14.00;83.30
19567;DHT22;9930;49.240;8.548;2023-11-21T14:39:42;14.00;83.30
19567;DHT22;9930;49.240;8.548;2023-11-21T14:42:11;13.90;83.10
19567;DHT22;9930;49.240;8.548;2023-11-21T14:44:41;13.90;83.10
19567;DHT22;9930;49.240;8.548;2023-11-21T14:47:09;13.90;83.10
19567;DHT22;9930;49.240;8.548;2023-11-21T14:49:44;13.80;83.10
19567;DHT22;9930;49.240;8.548;2023-11-21T14:52:19;13.80;82.90
19567;DHT22;9930;49.240;8.548;2023-11-21T14:55:00;13.80;83.00
19567;DHT22;9930;49.240;8.548;2023-11-21T14:57:48;13.80;83.10
19567;DHT22;9930;49.240;8.548;2023-11-21T15:00:18;13.70;83.10
19567;DHT22;9930;49.240;8.548;2023-11-21T15:02:59;13.70;83.10
19567;DHT22;9930;49.240;8.548;2023-11-21T15:05:28;13.70;83.10
19567;DHT22;9930;49.240;8.548;2023-11-21T15:07:57;13.70;83.10
19567;DHT22;9930;49.240;8.548;2023-11-21T15:10:44;13.60;83.10
19567;DHT22;9930;49.240;8.548;2023-11-21T15:13:19;13.60;83.10
19567;DHT22;9930;49.240;8.548;2023-11-21T15:15:47;13.60;83.90
19567;DHT22;9930;49.240;8.548;2023-11-21T15:18:13;13.50;83.20
19567;DHT22;9930;49.240;8.548;2023-11-21T15:20:42;13.50;83.10
19567;DHT22;9930;49.240;8.548;2023-11-21T15:23:09;13.50;83.10
19567;DHT22;9930;49.240;8.548;2023-11-21T15:25:42;13.50;83.10
19567;DHT22;9930;49.240;8.548;2023-11-21T15:28:11;13.50;83.10
19567;DHT22;9930;49.240;8.548;2023-11-21T15:30:41;13.40;83.00
19567;DHT22;9930;49.240;8.548;2023-11-21T15:33:07;13.40;83.00
19567;DHT22;9930;49.240;8.548;2023-11-21T15:35:34;13.40;83.00
19567;DHT22;9930;49.240;8.548;2023-11-21T15:38:03;13.40;83.00
19567;DHT22;9930;49.240;8.548;2023-11-21T15:40:34;13.40;83.00
19567;DHT22;9930;49.240;8.548;2023-11-21T15:43:00;13.30;82.90
19567;DHT22;9930;49.240;8.548;2023-11-21T15:45:28;13.40;83.00
19567;DHT22;9930;49.240;8.548;2023-11-21T15:47:54;13.30;82.90
19567;DHT22;9930;49.240;8.548;2023-11-21T15:50:19;13.20;82.90
19567;DHT22;9930;49.240;8.548;2023-11-21T15:52:47;13.30;82.90
19567;DHT22;9930;49.240;8.548;2023-11-21T15:55:13;13.20;82.90
19567;DHT22;9930;49.240;8.548;2023-11-21T15:57:39;13.20;82.90
19567;DHT22;9930;49.240;8.548;2023-11-21T16:00:08;13.20;82.90
19567;DHT22;9930;49.240;8.548;2023-11-21T16:02:42;13.10;82.90
19567;DHT22;9930;49.240;8.548;2023-11-21T16:05:10;13.10;82.90
19567;DHT22;9930;49.240;8.548;2023-11-21T16:07:42;13.10;83.00
19567;DHT22;9930;49.240;8.548;2023-11-21T16:10:09;13.00;82.90
19567;DHT22;9930;49.240;8.548;2023-11-21T16:12:37;13.00;82.90